Rejestracja

Wszystkie dane podawane są w czasie UTC za wyjątkiem miejsc gdzie jest jednoznacznie podane, że jest inaczej. Dane podawane w serwisie mają charakter informacyjny!!!
Informacje w sprawie dostępu do serwisu pod numerem tel. +48 261-828-138
Informacja dla żołnierzy i pracowników wojska: Prosimy o niezwłoczną zmianę adresu e-mail w profilu użytkownika na pocztę w domenie @ron.mil.pl

Aktualna Pogoda
 
Pogoda w Polsce
9°C Szczecin 10°C Suwałki 15°C Warszawa 13°C Poznan
14°C Opole 13°C Kraków 14°C Rzeszów
Więcej miast w Polsce

Pogoda w Europie
12°C Berlin 14°C Paryz 12°C Bruksela 9°C Oslo
11°C Praga 20°C Zagrzeb
Więcej miast w Europie

Metary wojskowe test
METAR EPCE 220230Z 00000KT 5000 0800E R25/1200U BCFG NSC 06/06 Q1029 RMK 062 100 0/0=
METAR EPDA 220230Z VRB01KT CAVOK 10/09 Q1029 RMK 097 097 0/0=
METAR EPDE 220230Z VRB02KT 0500 FG NSC 10/09 Q1029 RMK 096 095 1/1=
METAR EPIR 220200Z 00000KT 3000 BR NSC 10/09 Q1029 RMK 097 097 0/0=
METAR EPKS 220230Z 10002KT CAVOK 12/12 Q1029 RMK 119 100 0/0=
METAR EPLK 220230Z VRB02KT 6000 NSC 10/10 Q1029 RMK 101 100 0/0=
METAR EPLY 220200Z VRB02KT CAVOK 11/11 Q1029 RMK 112 096 0/0=
METAR EPMB 220200Z 23003KT 8000 MIFG NSC 09/09 Q1029 RMK 094 099 0/0=
METAR COR EPMI 220200Z VRB02KT 4000 MIFG BR NSC 09/09 Q1029 RMK 088 099 0/0=
METAR EPMM 220200Z 04004KT CAVOK 11/11 Q1029 RMK 114 095 0/0=
METAR EPOK 220230Z 25006KT CAVOK 13/11 Q1029 RMK 133 087 0/0=
METAR EPPR 220230Z 24006KT CAVOK 12/09 Q1029 RMK 116 085 0/0=
METAR EPPW 220230Z 10002KT CAVOK 11/10 Q1029 RMK 107 094 0/0=
METAR EPSN 220230Z VRB02KT 9999 MIFG NSC 09/08 Q1029 RMK 087 095 0/0=
METAR EPTM 220200Z AUTO 34002KT 10/10 Q1029 RMK 104 097 ///=


 

Prawa autorskie©2007 SSH SZ RP. Wszelkie prawa zastrzeżone.